| State | Missouri | Latest | Unknown (47500 cfs) | |
| River | Missouri River | Rating | Observed | Estimated |
| Updated | 2026-05-10 7:00 (38 minutes ago) | Flood - The river is flooding. Obstacles can be treacherous or deadly. The river should be avoided at this stage for casual trips and definitely for the inexperienced. Trips should be attempted only with protective gear and equipment.Flood | (none) | (none) |
| Discharge | 47500 cfs (median: 87500 cfs) | High - The river is high and potentially dangerous, especially for the young and / or inexperienced. Normal stream obstacles are sometimes difficult to navigate. Extended distances can be attempted, but canoe travel may not be advisable.High | (none) | (none) |
| Height | 8.89 feet | Good - Conditions are ideal for a canoe or kayak. Boats typically will drag on fewer than one-quarter of riffles, if at all, and portages are unnecessary or rare. Normal float lengths can be attempted without a problem.Good | (none) | (none) |
| Trend | Falling (falling over 24 hours) | Low - River is low but can still be floated. Some riffles are okay but most come with significant dragging and might need a portage. Float lengths should be reduced to accommodate low flow, dragging, and portages.Low | (none) | (none) |
| USGS | USGS Site ( Duck Duck Go Maps) | Poor - River is too low to float comfortably. Most or all riffles will drag or must be portaged and some obstacles (such as slick shelf rock) cause undue problems. Avoid the river at this stage for casual paddling trips.Poor | (none) | (none) |
| Date | Start | End | Distance | Condition | Discharge | Height | Fishing | Details |
|---|
A total of 0 rows are displayed.
BLG - Bluegill
CCF - Channel Catfish
CP - Chain Pickerel
FWD - Freshwater Drum
GSF - Green Sunfish
KSB - Kentucky Spotted Bass
LMB - Largemouth Bass
LSF - Longear Sunfish
RB - Rock Bass / Goggle Eye
RSF - Redear Sunfish
RT - Rainbow Trout
SMB - Smallmouth Bass
WB - White Bass
WF - Whitefish
WL - WalleyeThe classic River Trips application is still available for use. It is updated with the new system using a data retrofit. It is no longer maintained. The original River Trips application is no longer updated (as of 1 Dec 2016) but can be checked for errors or for the condition of the data before it was converted to the new system.
| Observation | Height | Discharge | Maximum Discharge | Minimum Discharge | Mean Discharge | P05 | P10 | P20 | P25 | P50 (Median) | P75 | P80 | P90 | P95 |
|---|---|---|---|---|---|---|---|---|---|---|---|---|---|---|
| 2026-05-10 07:00 | 8.89 | 47500 | 330000 (2007) | 37400 (1989) | 101000 | 40100 | 43600 | 50500 | 53400 | 87500 | 132000 | 150000 | 187000 | 228000 |
| 2026-05-10 06:00 | 8.96 | 47900 | 330000 (2007) | 37400 (1989) | 101000 | 40100 | 43600 | 50500 | 53400 | 87500 | 132000 | 150000 | 187000 | 228000 |
| 2026-05-10 05:00 | 8.98 | 48000 | 330000 (2007) | 37400 (1989) | 101000 | 40100 | 43600 | 50500 | 53400 | 87500 | 132000 | 150000 | 187000 | 228000 |
| 2026-05-10 04:00 | 9.01 | 48200 | 330000 (2007) | 37400 (1989) | 101000 | 40100 | 43600 | 50500 | 53400 | 87500 | 132000 | 150000 | 187000 | 228000 |
| 2026-05-10 03:00 | 8.96 | 47900 | 330000 (2007) | 37400 (1989) | 101000 | 40100 | 43600 | 50500 | 53400 | 87500 | 132000 | 150000 | 187000 | 228000 |
| 2026-05-10 02:00 | 9.03 | 48300 | 330000 (2007) | 37400 (1989) | 101000 | 40100 | 43600 | 50500 | 53400 | 87500 | 132000 | 150000 | 187000 | 228000 |
| 2026-05-10 01:00 | 9.05 | 48400 | 330000 (2007) | 37400 (1989) | 101000 | 40100 | 43600 | 50500 | 53400 | 87500 | 132000 | 150000 | 187000 | 228000 |
| 2026-05-10 00:00 | 9.06 | 48500 | 330000 (2007) | 37400 (1989) | 101000 | 40100 | 43600 | 50500 | 53400 | 87500 | 132000 | 150000 | 187000 | 228000 |
| 2026-05-09 23:00 | 9.07 | 48500 | 330000 (2007) | 37400 (1989) | 101000 | 40100 | 43600 | 50500 | 53400 | 87500 | 132000 | 150000 | 187000 | 228000 |
| 2026-05-09 22:00 | 9.08 | 48600 | 303000 (2007) | 37800 (1989) | 100000 | 40200 | 42800 | 47800 | 50900 | 88400 | 138000 | 145000 | 188000 | 204000 |
| 2026-05-09 21:00 | 9.07 | 48500 | 303000 (2007) | 37800 (1989) | 100000 | 40200 | 42800 | 47800 | 50900 | 88400 | 138000 | 145000 | 188000 | 204000 |
| 2026-05-09 20:00 | 9.08 | 48600 | 303000 (2007) | 37800 (1989) | 100000 | 40200 | 42800 | 47800 | 50900 | 88400 | 138000 | 145000 | 188000 | 204000 |
| 2026-05-09 19:00 | 9.10 | 48700 | 303000 (2007) | 37800 (1989) | 100000 | 40200 | 42800 | 47800 | 50900 | 88400 | 138000 | 145000 | 188000 | 204000 |
| 2026-05-09 18:00 | 9.09 | 48700 | 303000 (2007) | 37800 (1989) | 100000 | 40200 | 42800 | 47800 | 50900 | 88400 | 138000 | 145000 | 188000 | 204000 |
| 2026-05-09 17:00 | 9.16 | 49000 | 303000 (2007) | 37800 (1989) | 100000 | 40200 | 42800 | 47800 | 50900 | 88400 | 138000 | 145000 | 188000 | 204000 |
| 2026-05-09 16:00 | 9.15 | 49000 | 303000 (2007) | 37800 (1989) | 100000 | 40200 | 42800 | 47800 | 50900 | 88400 | 138000 | 145000 | 188000 | 204000 |
| 2026-05-09 15:00 | 9.17 | 49100 | 303000 (2007) | 37800 (1989) | 100000 | 40200 | 42800 | 47800 | 50900 | 88400 | 138000 | 145000 | 188000 | 204000 |
| 2026-05-09 14:00 | 9.19 | 49200 | 303000 (2007) | 37800 (1989) | 100000 | 40200 | 42800 | 47800 | 50900 | 88400 | 138000 | 145000 | 188000 | 204000 |
| 2026-05-09 13:00 | 9.19 | 49200 | 303000 (2007) | 37800 (1989) | 100000 | 40200 | 42800 | 47800 | 50900 | 88400 | 138000 | 145000 | 188000 | 204000 |
| 2026-05-09 12:00 | 9.19 | 49200 | 303000 (2007) | 37800 (1989) | 100000 | 40200 | 42800 | 47800 | 50900 | 88400 | 138000 | 145000 | 188000 | 204000 |
| 2026-05-09 11:00 | 9.20 | 49300 | 303000 (2007) | 37800 (1989) | 100000 | 40200 | 42800 | 47800 | 50900 | 88400 | 138000 | 145000 | 188000 | 204000 |
| 2026-05-09 10:00 | 9.22 | 49400 | 303000 (2007) | 37800 (1989) | 100000 | 40200 | 42800 | 47800 | 50900 | 88400 | 138000 | 145000 | 188000 | 204000 |
| 2026-05-09 09:00 | 9.23 | 49400 | 303000 (2007) | 37800 (1989) | 100000 | 40200 | 42800 | 47800 | 50900 | 88400 | 138000 | 145000 | 188000 | 204000 |
| 2026-05-09 08:00 | 9.24 | 49500 | 303000 (2007) | 37800 (1989) | 100000 | 40200 | 42800 | 47800 | 50900 | 88400 | 138000 | 145000 | 188000 | 204000 |
| 2026-05-09 07:00 | 9.26 | 49600 | 303000 (2007) | 37800 (1989) | 100000 | 40200 | 42800 | 47800 | 50900 | 88400 | 138000 | 145000 | 188000 | 204000 |
| 2026-05-09 06:00 | 9.27 | 49700 | 303000 (2007) | 37800 (1989) | 100000 | 40200 | 42800 | 47800 | 50900 | 88400 | 138000 | 145000 | 188000 | 204000 |
| 2026-05-09 05:00 | 9.28 | 49700 | 303000 (2007) | 37800 (1989) | 100000 | 40200 | 42800 | 47800 | 50900 | 88400 | 138000 | 145000 | 188000 | 204000 |
| 2026-05-09 04:00 | 9.30 | 49800 | 303000 (2007) | 37800 (1989) | 100000 | 40200 | 42800 | 47800 | 50900 | 88400 | 138000 | 145000 | 188000 | 204000 |
| 2026-05-09 03:00 | 9.32 | 50000 | 303000 (2007) | 37800 (1989) | 100000 | 40200 | 42800 | 47800 | 50900 | 88400 | 138000 | 145000 | 188000 | 204000 |
| 2026-05-09 02:00 | 9.34 | 50100 | 303000 (2007) | 37800 (1989) | 100000 | 40200 | 42800 | 47800 | 50900 | 88400 | 138000 | 145000 | 188000 | 204000 |
| 2026-05-09 01:00 | 9.36 | 50200 | 303000 (2007) | 37800 (1989) | 100000 | 40200 | 42800 | 47800 | 50900 | 88400 | 138000 | 145000 | 188000 | 204000 |
| 2026-05-09 00:00 | 9.38 | 50300 | 303000 (2007) | 37800 (1989) | 100000 | 40200 | 42800 | 47800 | 50900 | 88400 | 138000 | 145000 | 188000 | 204000 |
| 2026-05-08 23:00 | 9.40 | 50400 | 303000 (2007) | 37800 (1989) | 100000 | 40200 | 42800 | 47800 | 50900 | 88400 | 138000 | 145000 | 188000 | 204000 |
| 2026-05-08 22:00 | 9.43 | 50600 | 245000 (2007) | 38200 (1989) | 96600 | 39600 | 42500 | 49300 | 54500 | 92200 | 130000 | 141000 | 166000 | 181000 |
| 2026-05-08 21:00 | 9.46 | 50800 | 245000 (2007) | 38200 (1989) | 96600 | 39600 | 42500 | 49300 | 54500 | 92200 | 130000 | 141000 | 166000 | 181000 |
| 2026-05-08 20:00 | 9.48 | 50900 | 245000 (2007) | 38200 (1989) | 96600 | 39600 | 42500 | 49300 | 54500 | 92200 | 130000 | 141000 | 166000 | 181000 |
| 2026-05-08 19:00 | 9.51 | 51100 | 245000 (2007) | 38200 (1989) | 96600 | 39600 | 42500 | 49300 | 54500 | 92200 | 130000 | 141000 | 166000 | 181000 |
| 2026-05-08 18:00 | 9.54 | 51200 | 245000 (2007) | 38200 (1989) | 96600 | 39600 | 42500 | 49300 | 54500 | 92200 | 130000 | 141000 | 166000 | 181000 |
| 2026-05-08 17:00 | 9.56 | 51400 | 245000 (2007) | 38200 (1989) | 96600 | 39600 | 42500 | 49300 | 54500 | 92200 | 130000 | 141000 | 166000 | 181000 |
| 2026-05-08 16:00 | 9.58 | 51500 | 245000 (2007) | 38200 (1989) | 96600 | 39600 | 42500 | 49300 | 54500 | 92200 | 130000 | 141000 | 166000 | 181000 |
| 2026-05-08 15:00 | 9.60 | 51600 | 245000 (2007) | 38200 (1989) | 96600 | 39600 | 42500 | 49300 | 54500 | 92200 | 130000 | 141000 | 166000 | 181000 |
| 2026-05-08 14:00 | 9.62 | 51700 | 245000 (2007) | 38200 (1989) | 96600 | 39600 | 42500 | 49300 | 54500 | 92200 | 130000 | 141000 | 166000 | 181000 |
| 2026-05-08 13:00 | 9.65 | 51900 | 245000 (2007) | 38200 (1989) | 96600 | 39600 | 42500 | 49300 | 54500 | 92200 | 130000 | 141000 | 166000 | 181000 |
| 2026-05-08 12:00 | 9.68 | 52100 | 245000 (2007) | 38200 (1989) | 96600 | 39600 | 42500 | 49300 | 54500 | 92200 | 130000 | 141000 | 166000 | 181000 |
| 2026-05-08 11:00 | 9.72 | 52300 | 245000 (2007) | 38200 (1989) | 96600 | 39600 | 42500 | 49300 | 54500 | 92200 | 130000 | 141000 | 166000 | 181000 |
| 2026-05-08 10:00 | 9.75 | 52500 | 245000 (2007) | 38200 (1989) | 96600 | 39600 | 42500 | 49300 | 54500 | 92200 | 130000 | 141000 | 166000 | 181000 |
| 2026-05-08 09:00 | 9.77 | 52600 | 245000 (2007) | 38200 (1989) | 96600 | 39600 | 42500 | 49300 | 54500 | 92200 | 130000 | 141000 | 166000 | 181000 |
| 2026-05-08 08:00 | 9.82 | 52900 | 245000 (2007) | 38200 (1989) | 96600 | 39600 | 42500 | 49300 | 54500 | 92200 | 130000 | 141000 | 166000 | 181000 |
| 2026-05-08 07:00 | 9.84 | 53000 | 245000 (2007) | 38200 (1989) | 96600 | 39600 | 42500 | 49300 | 54500 | 92200 | 130000 | 141000 | 166000 | 181000 |
| 2026-05-08 06:00 | 9.87 | 53200 | 245000 (2007) | 38200 (1989) | 96600 | 39600 | 42500 | 49300 | 54500 | 92200 | 130000 | 141000 | 166000 | 181000 |
| 2026-05-08 05:00 | 9.89 | 53300 | 245000 (2007) | 38200 (1989) | 96600 | 39600 | 42500 | 49300 | 54500 | 92200 | 130000 | 141000 | 166000 | 181000 |
| 2026-05-08 04:00 | 9.93 | 53600 | 245000 (2007) | 38200 (1989) | 96600 | 39600 | 42500 | 49300 | 54500 | 92200 | 130000 | 141000 | 166000 | 181000 |
| 2026-05-08 03:00 | 9.97 | 53800 | 245000 (2007) | 38200 (1989) | 96600 | 39600 | 42500 | 49300 | 54500 | 92200 | 130000 | 141000 | 166000 | 181000 |
| 2026-05-08 02:00 | 10.02 | 54100 | 245000 (2007) | 38200 (1989) | 96600 | 39600 | 42500 | 49300 | 54500 | 92200 | 130000 | 141000 | 166000 | 181000 |
| 2026-05-08 01:00 | 10.04 | 54200 | 245000 (2007) | 38200 (1989) | 96600 | 39600 | 42500 | 49300 | 54500 | 92200 | 130000 | 141000 | 166000 | 181000 |
| 2026-05-08 00:00 | 10.07 | 54400 | 245000 (2007) | 38200 (1989) | 96600 | 39600 | 42500 | 49300 | 54500 | 92200 | 130000 | 141000 | 166000 | 181000 |
| 2026-05-07 23:00 | 10.10 | 54600 | 245000 (2007) | 38200 (1989) | 96600 | 39600 | 42500 | 49300 | 54500 | 92200 | 130000 | 141000 | 166000 | 181000 |
| 2026-05-07 22:00 | 10.13 | 54800 | 230000 (1999) | 38400 (1989) | 90100 | 39900 | 43400 | 49500 | 54200 | 84700 | 116000 | 131000 | 146000 | 164000 |
| 2026-05-07 21:00 | 10.15 | 54900 | 230000 (1999) | 38400 (1989) | 90100 | 39900 | 43400 | 49500 | 54200 | 84700 | 116000 | 131000 | 146000 | 164000 |
| 2026-05-07 20:00 | 10.16 | 55000 | 230000 (1999) | 38400 (1989) | 90100 | 39900 | 43400 | 49500 | 54200 | 84700 | 116000 | 131000 | 146000 | 164000 |
| 2026-05-07 19:00 | 10.19 | 55200 | 230000 (1999) | 38400 (1989) | 90100 | 39900 | 43400 | 49500 | 54200 | 84700 | 116000 | 131000 | 146000 | 164000 |
| 2026-05-07 18:00 | 10.15 | 54900 | 230000 (1999) | 38400 (1989) | 90100 | 39900 | 43400 | 49500 | 54200 | 84700 | 116000 | 131000 | 146000 | 164000 |
| 2026-05-07 17:00 | 10.15 | 54900 | 230000 (1999) | 38400 (1989) | 90100 | 39900 | 43400 | 49500 | 54200 | 84700 | 116000 | 131000 | 146000 | 164000 |
| 2026-05-07 16:00 | 10.19 | 55200 | 230000 (1999) | 38400 (1989) | 90100 | 39900 | 43400 | 49500 | 54200 | 84700 | 116000 | 131000 | 146000 | 164000 |
| 2026-05-07 15:00 | 10.20 | 55200 | 230000 (1999) | 38400 (1989) | 90100 | 39900 | 43400 | 49500 | 54200 | 84700 | 116000 | 131000 | 146000 | 164000 |
| 2026-05-07 14:00 | 10.22 | 55400 | 230000 (1999) | 38400 (1989) | 90100 | 39900 | 43400 | 49500 | 54200 | 84700 | 116000 | 131000 | 146000 | 164000 |
| 2026-05-07 13:00 | 10.22 | 55400 | 230000 (1999) | 38400 (1989) | 90100 | 39900 | 43400 | 49500 | 54200 | 84700 | 116000 | 131000 | 146000 | 164000 |
| 2026-05-07 12:00 | 10.22 | 55400 | 230000 (1999) | 38400 (1989) | 90100 | 39900 | 43400 | 49500 | 54200 | 84700 | 116000 | 131000 | 146000 | 164000 |
| 2026-05-07 11:00 | 10.28 | 55700 | 230000 (1999) | 38400 (1989) | 90100 | 39900 | 43400 | 49500 | 54200 | 84700 | 116000 | 131000 | 146000 | 164000 |
| 2026-05-07 10:00 | 10.32 | 56000 | 230000 (1999) | 38400 (1989) | 90100 | 39900 | 43400 | 49500 | 54200 | 84700 | 116000 | 131000 | 146000 | 164000 |
| 2026-05-07 09:00 | 10.35 | 56200 | 230000 (1999) | 38400 (1989) | 90100 | 39900 | 43400 | 49500 | 54200 | 84700 | 116000 | 131000 | 146000 | 164000 |
| 2026-05-07 08:00 | 10.36 | 56300 | 230000 (1999) | 38400 (1989) | 90100 | 39900 | 43400 | 49500 | 54200 | 84700 | 116000 | 131000 | 146000 | 164000 |
| 2026-05-07 07:00 | 10.36 | 56300 | 230000 (1999) | 38400 (1989) | 90100 | 39900 | 43400 | 49500 | 54200 | 84700 | 116000 | 131000 | 146000 | 164000 |
| 2026-05-07 06:00 | 10.38 | 56400 | 230000 (1999) | 38400 (1989) | 90100 | 39900 | 43400 | 49500 | 54200 | 84700 | 116000 | 131000 | 146000 | 164000 |
| 2026-05-07 05:00 | 10.37 | 56300 | 230000 (1999) | 38400 (1989) | 90100 | 39900 | 43400 | 49500 | 54200 | 84700 | 116000 | 131000 | 146000 | 164000 |
| 2026-05-07 04:00 | 10.37 | 56300 | 230000 (1999) | 38400 (1989) | 90100 | 39900 | 43400 | 49500 | 54200 | 84700 | 116000 | 131000 | 146000 | 164000 |
| 2026-05-07 03:00 | 10.38 | 56400 | 230000 (1999) | 38400 (1989) | 90100 | 39900 | 43400 | 49500 | 54200 | 84700 | 116000 | 131000 | 146000 | 164000 |
| 2026-05-07 02:00 | 10.37 | 56300 | 230000 (1999) | 38400 (1989) | 90100 | 39900 | 43400 | 49500 | 54200 | 84700 | 116000 | 131000 | 146000 | 164000 |
| 2026-05-07 01:00 | 10.37 | 56300 | 230000 (1999) | 38400 (1989) | 90100 | 39900 | 43400 | 49500 | 54200 | 84700 | 116000 | 131000 | 146000 | 164000 |
| 2026-05-07 00:00 | 10.35 | 56200 | 230000 (1999) | 38400 (1989) | 90100 | 39900 | 43400 | 49500 | 54200 | 84700 | 116000 | 131000 | 146000 | 164000 |
| 2026-05-06 23:00 | 10.35 | 56200 | 230000 (1999) | 38400 (1989) | 90100 | 39900 | 43400 | 49500 | 54200 | 84700 | 116000 | 131000 | 146000 | 164000 |
| 2026-05-06 22:00 | 10.35 | 56200 | 242000 (1999) | 38800 (1989) | 88000 | 41300 | 43300 | 48300 | 50800 | 81500 | 110000 | 122000 | 156000 | 176000 |
| 2026-05-06 21:00 | 10.34 | 56100 | 242000 (1999) | 38800 (1989) | 88000 | 41300 | 43300 | 48300 | 50800 | 81500 | 110000 | 122000 | 156000 | 176000 |
| 2026-05-06 20:00 | 10.30 | 55900 | 242000 (1999) | 38800 (1989) | 88000 | 41300 | 43300 | 48300 | 50800 | 81500 | 110000 | 122000 | 156000 | 176000 |
| 2026-05-06 19:00 | 10.29 | 55800 | 242000 (1999) | 38800 (1989) | 88000 | 41300 | 43300 | 48300 | 50800 | 81500 | 110000 | 122000 | 156000 | 176000 |
| 2026-05-06 18:00 | 10.29 | 55800 | 242000 (1999) | 38800 (1989) | 88000 | 41300 | 43300 | 48300 | 50800 | 81500 | 110000 | 122000 | 156000 | 176000 |
| 2026-05-06 17:00 | 10.28 | 55700 | 242000 (1999) | 38800 (1989) | 88000 | 41300 | 43300 | 48300 | 50800 | 81500 | 110000 | 122000 | 156000 | 176000 |
| 2026-05-06 16:00 | 10.25 | 55600 | 242000 (1999) | 38800 (1989) | 88000 | 41300 | 43300 | 48300 | 50800 | 81500 | 110000 | 122000 | 156000 | 176000 |
| 2026-05-06 15:00 | 10.24 | 55500 | 242000 (1999) | 38800 (1989) | 88000 | 41300 | 43300 | 48300 | 50800 | 81500 | 110000 | 122000 | 156000 | 176000 |
| 2026-05-06 14:00 | 10.22 | 55400 | 242000 (1999) | 38800 (1989) | 88000 | 41300 | 43300 | 48300 | 50800 | 81500 | 110000 | 122000 | 156000 | 176000 |
| 2026-05-06 13:00 | 10.20 | 63000 | 242000 (1999) | 38800 (1989) | 88000 | 41300 | 43300 | 48300 | 50800 | 81500 | 110000 | 122000 | 156000 | 176000 |
| 2026-05-06 12:00 | 10.17 | 62800 | 242000 (1999) | 38800 (1989) | 88000 | 41300 | 43300 | 48300 | 50800 | 81500 | 110000 | 122000 | 156000 | 176000 |
| 2026-05-06 11:00 | 10.14 | 62600 | 242000 (1999) | 38800 (1989) | 88000 | 41300 | 43300 | 48300 | 50800 | 81500 | 110000 | 122000 | 156000 | 176000 |
| 2026-05-06 10:00 | 10.13 | 62500 | 242000 (1999) | 38800 (1989) | 88000 | 41300 | 43300 | 48300 | 50800 | 81500 | 110000 | 122000 | 156000 | 176000 |
| 2026-05-06 09:00 | 62400 | 242000 (1999) | 38800 (1989) | 88000 | 41300 | 43300 | 48300 | 50800 | 81500 | 110000 | 122000 | 156000 | 176000 | |
| 2026-05-06 08:00 | 10.11 | 62300 | 242000 (1999) | 38800 (1989) | 88000 | 41300 | 43300 | 48300 | 50800 | 81500 | 110000 | 122000 | 156000 | 176000 |
| 2026-05-06 07:00 | 10.11 | 62300 | 242000 (1999) | 38800 (1989) | 88000 | 41300 | 43300 | 48300 | 50800 | 81500 | 110000 | 122000 | 156000 | 176000 |
| 2026-05-06 06:00 | 10.08 | 62100 | 242000 (1999) | 38800 (1989) | 88000 | 41300 | 43300 | 48300 | 50800 | 81500 | 110000 | 122000 | 156000 | 176000 |
| 2026-05-06 05:00 | 10.07 | 62100 | 242000 (1999) | 38800 (1989) | 88000 | 41300 | 43300 | 48300 | 50800 | 81500 | 110000 | 122000 | 156000 | 176000 |
| 2026-05-06 04:00 | 10.06 | 62000 | 242000 (1999) | 38800 (1989) | 88000 | 41300 | 43300 | 48300 | 50800 | 81500 | 110000 | 122000 | 156000 | 176000 |
| 2026-05-06 03:00 | 10.05 | 61900 | 242000 (1999) | 38800 (1989) | 88000 | 41300 | 43300 | 48300 | 50800 | 81500 | 110000 | 122000 | 156000 | 176000 |
| 2026-05-06 02:00 | 10.06 | 62000 | 242000 (1999) | 38800 (1989) | 88000 | 41300 | 43300 | 48300 | 50800 | 81500 | 110000 | 122000 | 156000 | 176000 |
| 2026-05-06 01:00 | 10.04 | 61900 | 242000 (1999) | 38800 (1989) | 88000 | 41300 | 43300 | 48300 | 50800 | 81500 | 110000 | 122000 | 156000 | 176000 |
| 2026-05-06 00:00 | 10.05 | 61900 | 242000 (1999) | 38800 (1989) | 88000 | 41300 | 43300 | 48300 | 50800 | 81500 | 110000 | 122000 | 156000 | 176000 |
| 2026-05-05 23:00 | 10.03 | 61800 | 242000 (1999) | 38800 (1989) | 88000 | 41300 | 43300 | 48300 | 50800 | 81500 | 110000 | 122000 | 156000 | 176000 |
| 2026-05-05 22:00 | 10.03 | 61800 | 220000 (2019) | 39200 (1989) | 88900 | 41400 | 43900 | 47700 | 49400 | 82800 | 102000 | 120000 | 167000 | 188000 |
| 2026-05-05 21:00 | 10.03 | 61800 | 220000 (2019) | 39200 (1989) | 88900 | 41400 | 43900 | 47700 | 49400 | 82800 | 102000 | 120000 | 167000 | 188000 |
| 2026-05-05 20:00 | 10.03 | 61800 | 220000 (2019) | 39200 (1989) | 88900 | 41400 | 43900 | 47700 | 49400 | 82800 | 102000 | 120000 | 167000 | 188000 |
| 2026-05-05 19:00 | 10.04 | 61900 | 220000 (2019) | 39200 (1989) | 88900 | 41400 | 43900 | 47700 | 49400 | 82800 | 102000 | 120000 | 167000 | 188000 |
| 2026-05-05 18:00 | 10.05 | 61900 | 220000 (2019) | 39200 (1989) | 88900 | 41400 | 43900 | 47700 | 49400 | 82800 | 102000 | 120000 | 167000 | 188000 |
| 2026-05-05 17:00 | 10.04 | 61900 | 220000 (2019) | 39200 (1989) | 88900 | 41400 | 43900 | 47700 | 49400 | 82800 | 102000 | 120000 | 167000 | 188000 |
| 2026-05-05 16:00 | 9.99 | 61500 | 220000 (2019) | 39200 (1989) | 88900 | 41400 | 43900 | 47700 | 49400 | 82800 | 102000 | 120000 | 167000 | 188000 |
| 2026-05-05 15:00 | 10.06 | 62000 | 220000 (2019) | 39200 (1989) | 88900 | 41400 | 43900 | 47700 | 49400 | 82800 | 102000 | 120000 | 167000 | 188000 |
| 2026-05-05 14:00 | 10.04 | 61900 | 220000 (2019) | 39200 (1989) | 88900 | 41400 | 43900 | 47700 | 49400 | 82800 | 102000 | 120000 | 167000 | 188000 |
| 2026-05-05 13:00 | 10.09 | 62200 | 220000 (2019) | 39200 (1989) | 88900 | 41400 | 43900 | 47700 | 49400 | 82800 | 102000 | 120000 | 167000 | 188000 |
| 2026-05-05 12:00 | 10.09 | 62200 | 220000 (2019) | 39200 (1989) | 88900 | 41400 | 43900 | 47700 | 49400 | 82800 | 102000 | 120000 | 167000 | 188000 |
| 2026-05-05 11:00 | 10.12 | 62400 | 220000 (2019) | 39200 (1989) | 88900 | 41400 | 43900 | 47700 | 49400 | 82800 | 102000 | 120000 | 167000 | 188000 |
| 2026-05-05 10:00 | 10.13 | 62500 | 220000 (2019) | 39200 (1989) | 88900 | 41400 | 43900 | 47700 | 49400 | 82800 | 102000 | 120000 | 167000 | 188000 |
| 2026-05-05 09:00 | 10.14 | 62600 | 220000 (2019) | 39200 (1989) | 88900 | 41400 | 43900 | 47700 | 49400 | 82800 | 102000 | 120000 | 167000 | 188000 |
| 2026-05-05 08:00 | 10.18 | 62800 | 220000 (2019) | 39200 (1989) | 88900 | 41400 | 43900 | 47700 | 49400 | 82800 | 102000 | 120000 | 167000 | 188000 |
| 2026-05-05 07:00 | 10.20 | 63000 | 220000 (2019) | 39200 (1989) | 88900 | 41400 | 43900 | 47700 | 49400 | 82800 | 102000 | 120000 | 167000 | 188000 |
| 2026-05-05 06:00 | 10.17 | 62800 | 220000 (2019) | 39200 (1989) | 88900 | 41400 | 43900 | 47700 | 49400 | 82800 | 102000 | 120000 | 167000 | 188000 |
| 2026-05-05 05:00 | 10.25 | 63300 | 220000 (2019) | 39200 (1989) | 88900 | 41400 | 43900 | 47700 | 49400 | 82800 | 102000 | 120000 | 167000 | 188000 |
| 2026-05-05 04:00 | 10.26 | 63400 | 220000 (2019) | 39200 (1989) | 88900 | 41400 | 43900 | 47700 | 49400 | 82800 | 102000 | 120000 | 167000 | 188000 |
| 2026-05-05 03:00 | 10.24 | 63300 | 220000 (2019) | 39200 (1989) | 88900 | 41400 | 43900 | 47700 | 49400 | 82800 | 102000 | 120000 | 167000 | 188000 |
| 2026-05-05 02:00 | 10.22 | 63100 | 220000 (2019) | 39200 (1989) | 88900 | 41400 | 43900 | 47700 | 49400 | 82800 | 102000 | 120000 | 167000 | 188000 |
| 2026-05-05 01:00 | 10.25 | 63300 | 220000 (2019) | 39200 (1989) | 88900 | 41400 | 43900 | 47700 | 49400 | 82800 | 102000 | 120000 | 167000 | 188000 |
| 2026-05-05 00:00 | 10.34 | 64000 | 220000 (2019) | 39200 (1989) | 88900 | 41400 | 43900 | 47700 | 49400 | 82800 | 102000 | 120000 | 167000 | 188000 |
| 2026-05-04 23:00 | 10.36 | 64100 | 220000 (2019) | 39200 (1989) | 88900 | 41400 | 43900 | 47700 | 49400 | 82800 | 102000 | 120000 | 167000 | 188000 |
| 2026-05-04 22:00 | 10.38 | 64200 | 262000 (2019) | 39500 (1989) | 89600 | 41200 | 44500 | 47000 | 49500 | 74800 | 109000 | 126000 | 172000 | 177000 |
| 2026-05-04 21:00 | 10.40 | 64400 | 262000 (2019) | 39500 (1989) | 89600 | 41200 | 44500 | 47000 | 49500 | 74800 | 109000 | 126000 | 172000 | 177000 |
| 2026-05-04 20:00 | 10.44 | 64700 | 262000 (2019) | 39500 (1989) | 89600 | 41200 | 44500 | 47000 | 49500 | 74800 | 109000 | 126000 | 172000 | 177000 |
| 2026-05-04 19:00 | 10.47 | 64900 | 262000 (2019) | 39500 (1989) | 89600 | 41200 | 44500 | 47000 | 49500 | 74800 | 109000 | 126000 | 172000 | 177000 |
| 2026-05-04 18:00 | 10.44 | 64700 | 262000 (2019) | 39500 (1989) | 89600 | 41200 | 44500 | 47000 | 49500 | 74800 | 109000 | 126000 | 172000 | 177000 |
| 2026-05-04 17:00 | 10.45 | 64700 | 262000 (2019) | 39500 (1989) | 89600 | 41200 | 44500 | 47000 | 49500 | 74800 | 109000 | 126000 | 172000 | 177000 |
| 2026-05-04 16:00 | 10.50 | 65100 | 262000 (2019) | 39500 (1989) | 89600 | 41200 | 44500 | 47000 | 49500 | 74800 | 109000 | 126000 | 172000 | 177000 |
| 2026-05-04 15:00 | 10.51 | 65200 | 262000 (2019) | 39500 (1989) | 89600 | 41200 | 44500 | 47000 | 49500 | 74800 | 109000 | 126000 | 172000 | 177000 |
| 2026-05-04 14:00 | 10.56 | 65500 | 262000 (2019) | 39500 (1989) | 89600 | 41200 | 44500 | 47000 | 49500 | 74800 | 109000 | 126000 | 172000 | 177000 |
| 2026-05-04 13:00 | 10.59 | 65700 | 262000 (2019) | 39500 (1989) | 89600 | 41200 | 44500 | 47000 | 49500 | 74800 | 109000 | 126000 | 172000 | 177000 |
| 2026-05-04 12:00 | 10.63 | 66000 | 262000 (2019) | 39500 (1989) | 89600 | 41200 | 44500 | 47000 | 49500 | 74800 | 109000 | 126000 | 172000 | 177000 |
| 2026-05-04 11:00 | 10.72 | 66700 | 262000 (2019) | 39500 (1989) | 89600 | 41200 | 44500 | 47000 | 49500 | 74800 | 109000 | 126000 | 172000 | 177000 |
| 2026-05-04 10:00 | 10.75 | 66900 | 262000 (2019) | 39500 (1989) | 89600 | 41200 | 44500 | 47000 | 49500 | 74800 | 109000 | 126000 | 172000 | 177000 |
| 2026-05-04 09:00 | 10.80 | 67300 | 262000 (2019) | 39500 (1989) | 89600 | 41200 | 44500 | 47000 | 49500 | 74800 | 109000 | 126000 | 172000 | 177000 |
| 2026-05-04 08:00 | 10.82 | 67400 | 262000 (2019) | 39500 (1989) | 89600 | 41200 | 44500 | 47000 | 49500 | 74800 | 109000 | 126000 | 172000 | 177000 |
| 2026-05-04 07:00 | 10.85 | 67700 | 262000 (2019) | 39500 (1989) | 89600 | 41200 | 44500 | 47000 | 49500 | 74800 | 109000 | 126000 | 172000 | 177000 |
| 2026-05-04 06:00 | 10.88 | 67900 | 262000 (2019) | 39500 (1989) | 89600 | 41200 | 44500 | 47000 | 49500 | 74800 | 109000 | 126000 | 172000 | 177000 |
| 2026-05-04 05:00 | 10.91 | 68100 | 262000 (2019) | 39500 (1989) | 89600 | 41200 | 44500 | 47000 | 49500 | 74800 | 109000 | 126000 | 172000 | 177000 |
| 2026-05-04 04:00 | 10.95 | 68400 | 262000 (2019) | 39500 (1989) | 89600 | 41200 | 44500 | 47000 | 49500 | 74800 | 109000 | 126000 | 172000 | 177000 |
| 2026-05-04 03:00 | 10.99 | 68700 | 262000 (2019) | 39500 (1989) | 89600 | 41200 | 44500 | 47000 | 49500 | 74800 | 109000 | 126000 | 172000 | 177000 |
| 2026-05-04 02:00 | 11.00 | 68800 | 262000 (2019) | 39500 (1989) | 89600 | 41200 | 44500 | 47000 | 49500 | 74800 | 109000 | 126000 | 172000 | 177000 |
| 2026-05-04 01:00 | 11.04 | 69100 | 262000 (2019) | 39500 (1989) | 89600 | 41200 | 44500 | 47000 | 49500 | 74800 | 109000 | 126000 | 172000 | 177000 |
| 2026-05-04 00:00 | 11.08 | 69400 | 262000 (2019) | 39500 (1989) | 89600 | 41200 | 44500 | 47000 | 49500 | 74800 | 109000 | 126000 | 172000 | 177000 |
| 2026-05-03 23:00 | 11.12 | 69700 | 262000 (2019) | 39500 (1989) | 89600 | 41200 | 44500 | 47000 | 49500 | 74800 | 109000 | 126000 | 172000 | 177000 |
| 2026-05-03 22:00 | 11.17 | 70100 | 278000 (2019) | 40800 (2023) | 91400 | 41400 | 44700 | 48700 | 49600 | 80000 | 110000 | 115000 | 170000 | 217000 |
| 2026-05-03 21:00 | 11.21 | 70400 | 278000 (2019) | 40800 (2023) | 91400 | 41400 | 44700 | 48700 | 49600 | 80000 | 110000 | 115000 | 170000 | 217000 |
| 2026-05-03 20:00 | 11.24 | 70600 | 278000 (2019) | 40800 (2023) | 91400 | 41400 | 44700 | 48700 | 49600 | 80000 | 110000 | 115000 | 170000 | 217000 |
| 2026-05-03 19:00 | 11.26 | 70700 | 278000 (2019) | 40800 (2023) | 91400 | 41400 | 44700 | 48700 | 49600 | 80000 | 110000 | 115000 | 170000 | 217000 |
| 2026-05-03 18:00 | 11.28 | 70900 | 278000 (2019) | 40800 (2023) | 91400 | 41400 | 44700 | 48700 | 49600 | 80000 | 110000 | 115000 | 170000 | 217000 |
| 2026-05-03 17:00 | 11.34 | 71400 | 278000 (2019) | 40800 (2023) | 91400 | 41400 | 44700 | 48700 | 49600 | 80000 | 110000 | 115000 | 170000 | 217000 |
| 2026-05-03 16:00 | 11.34 | 71400 | 278000 (2019) | 40800 (2023) | 91400 | 41400 | 44700 | 48700 | 49600 | 80000 | 110000 | 115000 | 170000 | 217000 |
| 2026-05-03 15:00 | 11.39 | 71700 | 278000 (2019) | 40800 (2023) | 91400 | 41400 | 44700 | 48700 | 49600 | 80000 | 110000 | 115000 | 170000 | 217000 |
| 2026-05-03 14:00 | 11.46 | 72300 | 278000 (2019) | 40800 (2023) | 91400 | 41400 | 44700 | 48700 | 49600 | 80000 | 110000 | 115000 | 170000 | 217000 |
| 2026-05-03 13:00 | 11.53 | 72800 | 278000 (2019) | 40800 (2023) | 91400 | 41400 | 44700 | 48700 | 49600 | 80000 | 110000 | 115000 | 170000 | 217000 |
| 2026-05-03 12:00 | 11.61 | 73500 | 278000 (2019) | 40800 (2023) | 91400 | 41400 | 44700 | 48700 | 49600 | 80000 | 110000 | 115000 | 170000 | 217000 |
| 2026-05-03 11:00 | 11.73 | 74400 | 278000 (2019) | 40800 (2023) | 91400 | 41400 | 44700 | 48700 | 49600 | 80000 | 110000 | 115000 | 170000 | 217000 |
| 2026-05-03 10:00 | 11.78 | 74800 | 278000 (2019) | 40800 (2023) | 91400 | 41400 | 44700 | 48700 | 49600 | 80000 | 110000 | 115000 | 170000 | 217000 |
| 2026-05-03 09:00 | 11.86 | 75500 | 278000 (2019) | 40800 (2023) | 91400 | 41400 | 44700 | 48700 | 49600 | 80000 | 110000 | 115000 | 170000 | 217000 |
| 2026-05-03 08:00 | 11.94 | 76100 | 278000 (2019) | 40800 (2023) | 91400 | 41400 | 44700 | 48700 | 49600 | 80000 | 110000 | 115000 | 170000 | 217000 |
| 2026-05-03 07:00 | 12.03 | 76800 | 278000 (2019) | 40800 (2023) | 91400 | 41400 | 44700 | 48700 | 49600 | 80000 | 110000 | 115000 | 170000 | 217000 |
| 2026-05-03 06:00 | 12.09 | 77300 | 278000 (2019) | 40800 (2023) | 91400 | 41400 | 44700 | 48700 | 49600 | 80000 | 110000 | 115000 | 170000 | 217000 |
| 2026-05-03 05:00 | 12.16 | 77900 | 278000 (2019) | 40800 (2023) | 91400 | 41400 | 44700 | 48700 | 49600 | 80000 | 110000 | 115000 | 170000 | 217000 |
| 2026-05-03 04:00 | 12.24 | 78600 | 278000 (2019) | 40800 (2023) | 91400 | 41400 | 44700 | 48700 | 49600 | 80000 | 110000 | 115000 | 170000 | 217000 |
| 2026-05-03 03:00 | 12.32 | 79200 | 278000 (2019) | 40800 (2023) | 91400 | 41400 | 44700 | 48700 | 49600 | 80000 | 110000 | 115000 | 170000 | 217000 |
| 2026-05-03 02:00 | 12.41 | 80000 | 278000 (2019) | 40800 (2023) | 91400 | 41400 | 44700 | 48700 | 49600 | 80000 | 110000 | 115000 | 170000 | 217000 |
| 2026-05-03 01:00 | 12.49 | 80700 | 278000 (2019) | 40800 (2023) | 91400 | 41400 | 44700 | 48700 | 49600 | 80000 | 110000 | 115000 | 170000 | 217000 |
| 2026-05-03 00:00 | 12.56 | 81300 | 278000 (2019) | 40800 (2023) | 91400 | 41400 | 44700 | 48700 | 49600 | 80000 | 110000 | 115000 | 170000 | 217000 |
| 2026-05-02 23:00 | 12.64 | 82000 | 278000 (2019) | 40800 (2023) | 91400 | 41400 | 44700 | 48700 | 49600 | 80000 | 110000 | 115000 | 170000 | 217000 |
A total of 177 rows are displayed for years 1958 through 2024.